createdAt,value
2018-05-29T00:00:46.870Z,16.90
2018-05-29T00:03:15.194Z,16.90
2018-05-29T00:05:42.763Z,16.90
2018-05-29T00:08:10.324Z,16.90
2018-05-29T00:10:37.903Z,16.90
2018-05-29T00:13:05.448Z,16.80
2018-05-29T00:15:32.997Z,16.90
2018-05-29T00:18:00.572Z,17.00
2018-05-29T00:20:28.147Z,17.10
2018-05-29T00:22:55.725Z,17.10
2018-05-29T00:25:24.054Z,17.10
2018-05-29T00:27:51.624Z,17.10
2018-05-29T00:30:19.188Z,17.00
2018-05-29T00:32:46.776Z,17.00
2018-05-29T00:35:15.102Z,16.90
2018-05-29T00:37:42.674Z,16.90
2018-05-29T00:40:10.222Z,16.80
2018-05-29T00:42:37.825Z,16.60
2018-05-29T00:45:05.381Z,16.50
2018-05-29T00:47:32.958Z,16.40
2018-05-29T00:50:01.275Z,16.30
2018-05-29T00:52:28.844Z,16.30
2018-05-29T00:55:08.349Z,16.40
2018-05-29T00:57:36.695Z,16.30
2018-05-29T01:00:04.239Z,16.30
2018-05-29T01:02:31.813Z,16.20
2018-05-29T01:04:59.364Z,16.20
2018-05-29T01:07:26.969Z,16.20
2018-05-29T01:09:55.276Z,16.20
2018-05-29T01:12:22.838Z,16.20
2018-05-29T01:14:50.386Z,16.40
2018-05-29T01:17:17.983Z,16.40
2018-05-29T01:19:45.544Z,16.30
2018-05-29T01:22:13.127Z,16.30
2018-05-29T01:24:40.712Z,16.30
2018-05-29T01:27:09.052Z,16.30
2018-05-29T01:29:36.607Z,16.30
2018-05-29T01:32:04.204Z,16.30
2018-05-29T01:34:32.523Z,16.20
2018-05-29T01:37:00.104Z,16.10
2018-05-29T01:39:27.665Z,16.10
2018-05-29T01:41:55.263Z,16.00
2018-05-29T01:44:23.578Z,16.00
2018-05-29T01:46:51.163Z,16.00
2018-05-29T01:49:18.717Z,15.90
2018-05-29T01:51:46.286Z,15.90
2018-05-29T01:54:13.839Z,15.90
2018-05-29T01:56:41.429Z,15.90
2018-05-29T01:59:09.757Z,16.00
2018-05-29T02:01:37.323Z,16.00
2018-05-29T02:04:04.871Z,15.90
2018-05-29T02:06:32.452Z,15.90
2018-05-29T02:09:00.762Z,16.00
2018-05-29T02:11:28.337Z,16.00
2018-05-29T02:13:56.641Z,16.00
2018-05-29T02:16:24.212Z,16.00
2018-05-29T02:18:51.761Z,16.10
2018-05-29T02:21:19.345Z,16.10
2018-05-29T02:23:46.889Z,16.20
2018-05-29T02:26:14.459Z,16.10
2018-05-29T02:28:42.056Z,16.10
2018-05-29T02:31:09.661Z,16.10
2018-05-29T02:33:37.245Z,16.10
2018-05-29T02:36:04.828Z,16.00
2018-05-29T02:38:32.422Z,16.00
2018-05-29T02:41:00.754Z,15.80
2018-05-29T02:43:28.333Z,15.80
2018-05-29T02:45:55.909Z,15.70
2018-05-29T02:48:24.247Z,15.60
2018-05-29T02:50:51.805Z,15.60
2018-05-29T02:53:19.376Z,15.50
2018-05-29T02:55:46.938Z,15.50
2018-05-29T02:58:14.529Z,15.50
2018-05-29T03:00:42.853Z,15.40
2018-05-29T03:03:10.430Z,15.40
2018-05-29T03:05:37.979Z,15.50
2018-05-29T03:08:05.577Z,15.50
2018-05-29T03:10:33.128Z,15.50
2018-05-29T03:13:00.719Z,15.60
2018-05-29T03:15:29.049Z,15.60
2018-05-29T03:17:56.630Z,15.60
2018-05-29T03:20:24.193Z,15.60
2018-05-29T03:22:51.787Z,15.60
2018-05-29T03:25:19.345Z,15.60
2018-05-29T03:27:47.678Z,15.70
2018-05-29T03:30:15.230Z,15.70
2018-05-29T03:32:42.820Z,15.80
2018-05-29T03:35:10.414Z,15.80
2018-05-29T03:37:38.009Z,15.70
2018-05-29T03:40:05.622Z,15.70
2018-05-29T03:42:33.981Z,15.70
2018-05-29T03:45:02.326Z,15.70
2018-05-29T03:47:29.929Z,15.80
2018-05-29T03:49:58.237Z,15.70
2018-05-29T03:52:25.829Z,15.70
2018-05-29T03:54:53.393Z,15.90
2018-05-29T03:57:20.972Z,15.90
2018-05-29T03:59:48.529Z,16.00
2018-05-29T04:02:16.125Z,16.00
2018-05-29T04:04:43.700Z,16.00
2018-05-29T04:07:11.265Z,16.00
2018-05-29T04:09:38.828Z,16.00
2018-05-29T04:12:06.425Z,16.10
2018-05-29T04:14:33.994Z,16.20
2018-05-29T04:17:01.606Z,16.20
2018-05-29T04:19:29.186Z,16.30
2018-05-29T04:21:56.766Z,16.40
2018-05-29T04:24:24.352Z,16.50
2018-05-29T04:29:26.591Z,16.60
2018-05-29T04:31:54.164Z,16.70
2018-05-29T04:34:21.732Z,16.80
2018-05-29T04:36:49.307Z,16.80
2018-05-29T04:39:16.851Z,16.80
2018-05-29T04:41:44.435Z,16.90
2018-05-29T04:44:16.700Z,17.00
2018-05-29T04:46:44.283Z,17.00
2018-05-29T04:49:12.597Z,17.00
2018-05-29T04:51:40.181Z,16.90
2018-05-29T04:54:07.731Z,17.00
2018-05-29T04:56:35.330Z,17.00
2018-05-29T04:59:03.677Z,17.00
2018-05-29T05:01:31.241Z,17.00
2018-05-29T05:03:58.818Z,17.20
2018-05-29T05:06:27.158Z,17.80
2018-05-29T05:08:54.782Z,17.70
2018-05-29T05:11:23.090Z,18.00
2018-05-29T05:13:50.677Z,18.00
2018-05-29T05:16:18.221Z,17.90
2018-05-29T05:18:45.785Z,18.00
2018-05-29T05:21:14.113Z,18.00
2018-05-29T05:23:42.457Z,18.20
2018-05-29T05:26:09.998Z,18.20
2018-05-29T05:28:37.601Z,18.20
2018-05-29T05:31:05.927Z,18.00
2018-05-29T05:33:33.512Z,17.90
2018-05-29T05:36:01.064Z,17.90
2018-05-29T05:38:28.645Z,18.00
2018-05-29T05:40:56.197Z,17.90
2018-05-29T05:43:23.778Z,17.90
2018-05-29T05:45:52.105Z,18.00
2018-05-29T05:48:19.685Z,17.90
2018-05-29T05:50:47.244Z,18.00
2018-05-29T05:53:14.851Z,18.00
2018-05-29T05:55:43.186Z,18.10
2018-05-29T05:58:10.771Z,18.10
2018-05-29T06:00:39.111Z,18.40
2018-05-29T06:03:06.689Z,18.40
2018-05-29T06:05:34.239Z,18.60
2018-05-29T06:08:01.819Z,18.70
2018-05-29T06:10:29.373Z,18.90
2018-05-29T06:12:56.969Z,18.90
2018-05-29T06:15:25.285Z,19.00
2018-05-29T06:17:52.848Z,19.00
2018-05-29T06:20:20.408Z,19.30
2018-05-29T06:22:47.987Z,19.00
2018-05-29T06:25:15.569Z,18.90
2018-05-29T06:27:43.149Z,19.30
2018-05-29T06:30:11.476Z,19.30
2018-05-29T06:54:02.940Z,19.90
2018-05-29T06:56:30.494Z,20.00
2018-05-29T06:58:58.134Z,20.20
2018-05-29T07:01:25.685Z,20.50
2018-05-29T07:03:53.326Z,20.50
2018-05-29T07:06:20.837Z,20.80
2018-05-29T07:08:48.416Z,20.50
2018-05-29T07:11:16.071Z,20.20
2018-05-29T07:13:43.660Z,20.20
2018-05-29T07:16:11.983Z,20.10
2018-05-29T07:18:39.553Z,20.10
2018-05-29T07:21:07.111Z,20.20
2018-05-29T07:23:34.676Z,20.10
2018-05-29T07:26:02.221Z,20.00
2018-05-29T07:28:29.783Z,19.90
2018-05-29T07:30:57.334Z,19.70
2018-05-29T07:33:24.911Z,19.70
2018-05-29T07:35:52.466Z,19.60
2018-05-29T07:38:20.036Z,19.70
2018-05-29T07:40:47.588Z,19.50
2018-05-29T07:43:15.180Z,19.30
2018-05-29T07:45:42.741Z,19.50
2018-05-29T07:48:10.316Z,19.80
2018-05-29T07:50:37.853Z,19.90
2018-05-29T07:53:05.425Z,19.60
2018-05-29T07:55:32.991Z,20.00
2018-05-29T07:58:00.558Z,20.00
2018-05-29T08:00:28.873Z,20.00
2018-05-29T08:02:56.449Z,20.00
2018-05-29T08:05:24.008Z,19.90
2018-05-29T08:07:51.622Z,19.80
2018-05-29T08:10:19.941Z,19.60
2018-05-29T08:12:47.505Z,19.60
2018-05-29T08:15:15.072Z,19.80
2018-05-29T08:17:42.655Z,19.70
2018-05-29T08:20:10.224Z,19.30
2018-05-29T08:22:37.818Z,19.60
2018-05-29T08:25:05.407Z,19.70
2018-05-29T08:27:32.998Z,19.90
2018-05-29T08:30:00.559Z,20.10
2018-05-29T08:32:28.138Z,20.30
2018-05-29T08:34:55.703Z,20.60
2018-05-29T08:37:24.037Z,20.40
2018-05-29T08:39:51.618Z,20.40
2018-05-29T08:42:19.180Z,20.60
2018-05-29T08:44:46.798Z,21.20
2018-05-29T08:47:14.367Z,21.30
2018-05-29T08:49:41.965Z,21.30
2018-05-29T08:52:09.528Z,21.50
2018-05-29T08:54:37.105Z,21.50
2018-05-29T08:57:05.424Z,21.20
2018-05-29T08:59:32.986Z,21.20
2018-05-29T09:02:00.530Z,21.40
2018-05-29T09:04:28.113Z,21.50
2018-05-29T09:06:55.664Z,21.80
2018-05-29T09:09:23.233Z,21.70
2018-05-29T09:11:50.790Z,21.70
2018-05-29T09:14:19.331Z,22.20
2018-05-29T09:16:47.654Z,22.60
2018-05-29T09:19:15.220Z,22.50
2018-05-29T09:21:42.780Z,22.50
2018-05-29T09:24:10.358Z,22.30
2018-05-29T09:26:37.913Z,21.70
2018-05-29T09:29:05.493Z,21.50
2018-05-29T09:31:33.052Z,21.80
2018-05-29T09:34:00.636Z,21.90
2018-05-29T09:36:28.961Z,21.20
2018-05-29T09:38:57.297Z,20.90
2018-05-29T09:41:25.617Z,20.80
2018-05-29T09:43:53.177Z,20.80
2018-05-29T09:46:20.725Z,20.70
2018-05-29T09:48:48.293Z,20.80
2018-05-29T09:51:15.838Z,21.00
2018-05-29T09:53:43.425Z,21.20
2018-05-29T09:56:10.985Z,21.30
2018-05-29T09:58:38.560Z,21.30
2018-05-29T10:01:06.124Z,21.60
2018-05-29T10:03:33.701Z,21.70
2018-05-29T10:06:02.013Z,21.90
2018-05-29T10:08:29.575Z,21.90
2018-05-29T10:10:57.125Z,22.30
2018-05-29T10:13:24.709Z,21.90
2018-05-29T10:18:26.204Z,21.80
2018-05-29T10:20:53.766Z,22.00
2018-05-29T10:23:21.409Z,22.00
2018-05-29T10:25:48.922Z,22.20
2018-05-29T10:28:17.258Z,22.00
2018-05-29T10:30:44.801Z,22.00
2018-05-29T10:33:12.369Z,21.90
2018-05-29T10:35:39.932Z,21.90
2018-05-29T10:38:07.494Z,21.90
2018-05-29T10:40:35.055Z,21.70
2018-05-29T10:43:02.622Z,22.20
2018-05-29T10:45:30.170Z,22.10
2018-05-29T10:47:57.720Z,21.70
2018-05-29T10:50:25.325Z,22.00
2018-05-29T10:52:53.661Z,22.40
2018-05-29T10:55:21.274Z,22.40
2018-05-29T10:57:49.592Z,22.10
2018-05-29T11:00:17.169Z,22.10
2018-05-29T11:02:44.741Z,22.00
2018-05-29T11:05:12.309Z,22.20
2018-05-29T11:07:39.857Z,21.90
2018-05-29T11:10:07.439Z,21.40
2018-05-29T11:12:34.969Z,21.50
2018-05-29T11:15:02.540Z,21.10
2018-05-29T11:17:30.090Z,21.10
2018-05-29T11:19:57.683Z,21.00
2018-05-29T11:22:25.245Z,20.80
2018-05-29T11:24:53.588Z,20.40
2018-05-29T11:27:21.222Z,20.40
2018-05-29T11:29:49.540Z,20.50
2018-05-29T11:32:17.135Z,20.50
2018-05-29T11:34:45.476Z,20.30
2018-05-29T11:37:13.025Z,20.30
2018-05-29T11:39:40.610Z,20.40
2018-05-29T11:42:08.174Z,20.50
2018-05-29T11:44:35.753Z,20.50
2018-05-29T11:47:04.085Z,20.40
2018-05-29T11:49:31.656Z,20.40
2018-05-29T11:51:59.205Z,20.20
2018-05-29T11:54:26.788Z,20.30
2018-05-29T11:56:54.334Z,20.20
2018-05-29T11:59:21.905Z,20.20
2018-05-29T12:01:49.470Z,20.30
2018-05-29T12:04:17.850Z,20.50
2018-05-29T12:06:45.396Z,20.50
2018-05-29T12:09:12.985Z,20.70
2018-05-29T12:11:41.318Z,21.90
2018-05-29T12:14:08.885Z,21.90
2018-05-29T12:16:36.426Z,21.80
2018-05-29T12:19:04.000Z,21.30
2018-05-29T12:21:31.542Z,21.20
2018-05-29T12:23:59.102Z,21.10
2018-05-29T12:26:26.659Z,21.20
2018-05-29T12:28:54.236Z,21.20
2018-05-29T12:31:21.794Z,21.60
2018-05-29T12:33:49.375Z,21.60
2018-05-29T12:36:16.930Z,21.70
2018-05-29T12:38:44.502Z,21.50
2018-05-29T12:41:12.056Z,21.80
2018-05-29T12:46:07.689Z,22.10
2018-05-29T12:48:35.250Z,22.80
2018-05-29T12:51:02.800Z,22.90
2018-05-29T12:53:30.357Z,23.30
2018-05-29T12:55:57.916Z,24.30
2018-05-29T12:58:25.465Z,23.90
2018-05-29T13:00:53.029Z,23.70
2018-05-29T13:03:20.572Z,23.20
2018-05-29T13:05:48.141Z,23.90
2018-05-29T13:08:15.693Z,24.70
2018-05-29T13:10:43.274Z,24.70
2018-05-29T13:13:10.847Z,24.60
2018-05-29T13:15:38.452Z,24.20
2018-05-29T13:18:05.997Z,23.80
2018-05-29T13:20:34.344Z,23.50
2018-05-29T13:23:01.892Z,23.50
2018-05-29T13:25:29.480Z,23.90
2018-05-29T13:27:57.061Z,23.60
2018-05-29T13:30:25.404Z,23.50
2018-05-29T13:32:54.503Z,23.50
2018-05-29T13:35:22.046Z,23.50
2018-05-29T13:37:49.612Z,24.20
2018-05-29T13:40:17.181Z,23.70
2018-05-29T13:42:44.737Z,23.50
2018-05-29T13:45:13.074Z,23.70
2018-05-29T13:47:40.617Z,23.60
2018-05-29T13:50:08.956Z,23.90
2018-05-29T13:52:36.517Z,23.80
2018-05-29T13:55:04.081Z,24.10
2018-05-29T13:57:31.630Z,24.30
2018-05-29T13:59:59.214Z,24.10
2018-05-29T14:02:26.776Z,23.60
2018-05-29T14:04:55.150Z,23.40
2018-05-29T14:07:22.722Z,23.30
2018-05-29T14:09:51.071Z,22.80
2018-05-29T14:12:18.617Z,22.70
2018-05-29T14:14:46.189Z,22.50
2018-05-29T14:17:13.746Z,23.30
2018-05-29T14:19:41.329Z,22.90
2018-05-29T14:22:08.874Z,23.10
2018-05-29T14:24:36.426Z,23.10
2018-05-29T14:27:03.968Z,23.00
2018-05-29T14:29:31.544Z,22.90
2018-05-29T14:31:59.114Z,23.00
2018-05-29T14:34:26.704Z,23.00
2018-05-29T14:36:55.009Z,22.80
2018-05-29T14:39:22.573Z,22.80
2018-05-29T14:41:50.129Z,23.10
2018-05-29T14:44:17.716Z,23.50
2018-05-29T14:46:45.265Z,23.80
2018-05-29T14:49:12.841Z,24.00
2018-05-29T14:51:40.411Z,23.40
2018-05-29T14:54:07.989Z,23.10
2018-05-29T14:56:35.548Z,22.50
2018-05-29T14:59:03.097Z,23.20
2018-05-29T15:01:30.673Z,23.40
2018-05-29T15:03:58.221Z,23.60
2018-05-29T15:06:25.793Z,23.40
2018-05-29T15:08:53.357Z,22.60
2018-05-29T15:11:21.693Z,22.20
2018-05-29T15:13:49.245Z,22.20
2018-05-29T15:16:16.810Z,22.10
2018-05-29T15:18:44.361Z,22.10
2018-05-29T15:21:11.945Z,22.10
2018-05-29T15:23:39.482Z,22.40
2018-05-29T15:26:07.077Z,23.00
2018-05-29T15:28:34.626Z,22.10
2018-05-29T15:31:02.196Z,21.80
2018-05-29T15:33:29.731Z,21.90
2018-05-29T15:35:58.077Z,23.00
2018-05-29T15:38:25.660Z,23.00
2018-05-29T15:40:53.249Z,23.00
2018-05-29T15:43:20.805Z,22.80
2018-05-29T15:45:48.381Z,22.40
2018-05-29T15:48:15.936Z,22.70
2018-05-29T15:50:43.537Z,22.60
2018-05-29T15:53:11.133Z,22.50
2018-05-29T15:55:38.692Z,22.40
2018-05-29T15:58:06.257Z,22.20
2018-05-29T16:00:33.831Z,22.00
2018-05-29T16:03:01.399Z,21.90
2018-05-29T16:05:28.970Z,22.10
2018-05-29T16:07:56.519Z,23.10
2018-05-29T16:10:24.092Z,23.70
2018-05-29T16:12:51.649Z,23.70
2018-05-29T16:15:19.223Z,23.70
2018-05-29T16:17:47.540Z,24.30
2018-05-29T16:20:15.272Z,24.30
2018-05-29T16:22:43.610Z,25.50
2018-05-29T16:25:11.195Z,25.50
2018-05-29T16:27:39.522Z,26.50
2018-05-29T16:30:07.092Z,26.50
2018-05-29T16:32:34.642Z,26.90
2018-05-29T16:35:02.226Z,28.00
2018-05-29T16:37:29.799Z,26.70
2018-05-29T16:39:57.407Z,26.30
2018-05-29T16:42:24.969Z,26.10
2018-05-29T16:44:52.555Z,27.50
2018-05-29T16:47:20.111Z,28.10
2018-05-29T16:49:47.685Z,27.80
2018-05-29T16:52:15.252Z,26.90
2018-05-29T16:54:42.835Z,26.70
2018-05-29T16:57:10.371Z,25.20
2018-05-29T16:59:37.970Z,24.70
2018-05-29T17:02:06.312Z,26.20
2018-05-29T17:04:33.862Z,26.20
2018-05-29T17:07:01.441Z,26.10
2018-05-29T17:09:28.988Z,25.90
2018-05-29T17:11:56.575Z,25.40
2018-05-29T17:14:24.903Z,25.10
2018-05-29T17:16:52.482Z,25.10
2018-05-29T17:19:20.040Z,25.90
2018-05-29T17:21:47.711Z,25.90
2018-05-29T17:24:15.230Z,25.60
2018-05-29T17:26:43.166Z,26.70
2018-05-29T17:29:11.516Z,26.20
2018-05-29T17:31:39.109Z,26.20
2018-05-29T17:34:07.445Z,25.00
2018-05-29T17:36:35.043Z,25.00
2018-05-29T17:39:03.398Z,25.60
2018-05-29T17:41:30.984Z,25.60
2018-05-29T17:43:59.329Z,25.80
2018-05-29T17:46:26.920Z,25.70
2018-05-29T17:48:54.473Z,25.50
2018-05-29T17:51:22.044Z,25.50
2018-05-29T17:53:50.376Z,25.20
2018-05-29T17:56:18.008Z,25.20
2018-05-29T17:58:45.550Z,25.20
2018-05-29T18:01:13.925Z,23.50
2018-05-29T18:03:42.304Z,23.60
2018-05-29T18:06:10.651Z,23.70
2018-05-29T18:08:38.234Z,23.70
2018-05-29T18:11:06.578Z,22.90
2018-05-29T18:13:34.113Z,22.90
2018-05-29T18:16:01.692Z,22.30
2018-05-29T18:18:29.251Z,21.80
2018-05-29T18:20:56.835Z,21.90
2018-05-29T18:23:24.386Z,21.80
2018-05-29T18:25:51.980Z,21.70
2018-05-29T18:28:20.312Z,20.90
2018-05-29T18:30:47.896Z,21.00
2018-05-29T18:33:15.442Z,20.50
2018-05-29T18:35:43.016Z,20.30
2018-05-29T18:38:10.567Z,20.30
2018-05-29T18:40:38.145Z,20.20
2018-05-29T18:43:05.690Z,20.10
2018-05-29T18:45:33.288Z,20.00
2018-05-29T18:48:01.599Z,19.70
2018-05-29T18:50:30.149Z,19.70
2018-05-29T18:52:58.500Z,19.40
2018-05-29T18:55:26.098Z,19.40
2018-05-29T18:57:54.472Z,19.20
2018-05-29T19:00:22.030Z,19.20
2018-05-29T19:02:50.348Z,19.10
2018-05-29T19:05:17.925Z,19.00
2018-05-29T19:10:19.389Z,18.90
2018-05-29T19:12:46.945Z,18.80
2018-05-29T19:15:14.531Z,18.70
2018-05-29T19:17:42.073Z,18.60
2018-05-29T19:20:09.643Z,18.40
2018-05-29T19:22:37.197Z,18.30
2018-05-29T19:25:04.750Z,18.20
2018-05-29T19:27:32.328Z,18.20
2018-05-29T19:29:59.894Z,18.20
2018-05-29T19:32:27.482Z,18.20
2018-05-29T19:34:55.044Z,18.10
2018-05-29T19:37:22.635Z,18.10
2018-05-29T19:39:50.194Z,18.10
2018-05-29T19:42:17.762Z,18.00
2018-05-29T19:44:45.329Z,17.90
2018-05-29T19:47:12.925Z,17.80
2018-05-29T19:49:41.250Z,17.50
2018-05-29T19:52:08.837Z,17.50
2018-05-29T19:54:36.382Z,17.50
2018-05-29T19:57:03.967Z,17.40
2018-05-29T19:59:31.532Z,17.40
2018-05-29T20:01:59.138Z,17.30
2018-05-29T20:04:26.677Z,17.30
2018-05-29T20:06:55.050Z,17.40
2018-05-29T20:09:23.359Z,17.40
2018-05-29T20:11:50.960Z,17.30
2018-05-29T20:14:18.589Z,17.20
2018-05-29T20:16:46.161Z,17.20
2018-05-29T20:19:13.714Z,17.20
2018-05-29T20:21:41.311Z,17.10
2018-05-29T20:24:08.857Z,17.10
2018-05-29T20:26:37.206Z,17.00
2018-05-29T20:29:04.790Z,17.00
2018-05-29T20:31:32.363Z,17.00
2018-05-29T20:33:59.926Z,17.00
2018-05-29T20:36:27.490Z,17.10
2018-05-29T20:38:55.026Z,17.00
2018-05-29T20:41:22.602Z,17.00
2018-05-29T20:43:50.932Z,16.90
2018-05-29T20:46:18.513Z,16.90
2018-05-29T20:48:46.078Z,16.70
2018-05-29T20:51:13.639Z,16.60
2018-05-29T20:53:41.205Z,16.60
2018-05-29T20:56:08.770Z,16.60
2018-05-29T20:58:36.336Z,16.60
2018-05-29T21:01:03.932Z,16.50
2018-05-29T21:03:31.462Z,16.50
2018-05-29T21:05:59.022Z,16.40
2018-05-29T21:08:26.569Z,16.40
2018-05-29T21:10:54.894Z,16.50
2018-05-29T21:13:23.203Z,16.40
2018-05-29T21:15:50.777Z,16.50
2018-05-29T21:18:18.316Z,16.50
2018-05-29T21:20:45.873Z,16.60
2018-05-29T21:23:13.463Z,16.50
2018-05-29T21:25:41.080Z,16.50
2018-05-29T21:28:08.608Z,16.50
2018-05-29T21:30:36.158Z,16.50
2018-05-29T21:33:03.743Z,16.50
2018-05-29T21:35:32.076Z,16.40
2018-05-29T21:37:59.654Z,16.40
2018-05-29T21:40:27.965Z,16.40
2018-05-29T21:42:56.317Z,16.30
2018-05-29T21:45:23.864Z,16.30
2018-05-29T21:47:51.433Z,16.40
2018-05-29T21:50:18.982Z,16.30
2018-05-29T21:52:46.565Z,16.30
2018-05-29T21:55:14.144Z,16.20
2018-05-29T21:57:42.791Z,16.10
2018-05-29T22:00:10.337Z,16.10
2018-05-29T22:02:37.923Z,16.00
2018-05-29T22:05:05.507Z,16.00
2018-05-29T22:07:33.858Z,16.00
2018-05-29T22:10:01.458Z,15.90
2018-05-29T22:12:29.047Z,16.00
2018-05-29T22:14:56.608Z,16.00
2018-05-29T22:17:24.193Z,16.00
2018-05-29T22:19:51.730Z,15.90
2018-05-29T22:22:19.304Z,16.00
2018-05-29T22:24:46.860Z,16.00
2018-05-29T22:27:14.477Z,16.00
2018-05-29T22:29:42.001Z,15.90
2018-05-29T22:32:09.616Z,15.90
2018-05-29T22:34:37.168Z,15.90
2018-05-29T22:37:04.773Z,15.90
2018-05-29T22:39:32.384Z,15.80
2018-05-29T22:41:59.941Z,15.80
2018-05-29T22:44:28.260Z,15.70
2018-05-29T22:46:55.827Z,15.70
2018-05-29T22:49:23.386Z,15.70
2018-05-29T22:51:50.969Z,15.80
2018-05-29T22:54:18.522Z,15.80
2018-05-29T22:56:46.089Z,15.80
2018-05-29T22:59:13.637Z,15.90
2018-05-29T23:01:41.201Z,15.90
2018-05-29T23:04:08.763Z,15.80
2018-05-29T23:06:36.341Z,15.70
2018-05-29T23:09:04.688Z,15.60
2018-05-29T23:11:32.255Z,15.60
2018-05-29T23:13:59.805Z,15.60
2018-05-29T23:16:27.405Z,15.60
2018-05-29T23:18:55.720Z,15.60
2018-05-29T23:21:23.303Z,15.60
2018-05-29T23:23:50.850Z,15.50
2018-05-29T23:26:18.422Z,15.50
2018-05-29T23:28:45.966Z,15.50
2018-05-29T23:31:13.536Z,15.40
2018-05-29T23:33:41.098Z,15.30
2018-05-29T23:36:08.681Z,15.30
2018-05-29T23:38:36.252Z,15.30
2018-05-29T23:41:03.803Z,15.30
2018-05-29T23:43:31.375Z,15.40
2018-05-29T23:45:59.709Z,15.50
2018-05-29T23:48:27.281Z,15.50
2018-05-29T23:50:58.184Z,15.40
2018-05-29T23:53:25.754Z,15.30
2018-05-29T23:55:53.298Z,15.20
2018-05-29T23:58:20.902Z,15.30
